Time;durP1;ratioP1;P1;durP2;ratioP2;P2;SDS_P1;SDS_P2;PMS_P1;PMS_P2;Temp;Humidity;BMP_temperature;BMP_pressure;BME280_temperature;BME280_humidity;BME280_pressure;Samples;Min_cycle;Max_cycle;Signal;HPM_P1;HPM_P2
2023/10/30 00:00:27;;;;;;;1.38;0.30;;;13.10;99.90;;;;;;5134455;27;20422;-58
2023/10/30 00:02:54;;;;;;;1.00;0.30;;;13.20;99.90;;;;;;5134273;27;20524;-59
2023/10/30 00:05:21;;;;;;;0.70;0.40;;;13.20;99.90;;;;;;5134605;27;20841;-58
2023/10/30 00:07:48;;;;;;;0.60;0.40;;;13.20;99.90;;;;;;5134365;27;20414;-59
2023/10/30 00:10:15;;;;;;;0.60;0.30;;;13.30;99.90;;;;;;5134769;27;20422;-59
2023/10/30 00:12:43;;;;;;;0.60;0.35;;;13.20;99.90;;;;;;5134528;27;20419;-60
2023/10/30 00:15:10;;;;;;;1.02;0.30;;;13.20;99.90;;;;;;5134704;27;20418;-59
2023/10/30 00:17:38;;;;;;;0.65;0.30;;;13.10;99.90;;;;;;5134490;27;20429;-60
2023/10/30 00:20:06;;;;;;;0.70;0.40;;;13.10;99.90;;;;;;5134336;27;20422;-57
2023/10/30 00:22:33;;;;;;;0.63;0.40;;;13.10;99.90;;;;;;5134324;27;20410;-59
2023/10/30 00:25:01;;;;;;;0.70;0.40;;;13.00;99.90;;;;;;5134661;27;20418;-59
2023/10/30 00:27:28;;;;;;;0.60;0.30;;;13.00;99.90;;;;;;5134504;27;20475;-59
2023/10/30 00:29:55;;;;;;;1.15;0.40;;;13.00;99.90;;;;;;5134617;27;20498;-59
2023/10/30 00:32:22;;;;;;;0.60;0.40;;;13.00;99.90;;;;;;5134531;27;20418;-59
2023/10/30 00:34:50;;;;;;;0.70;0.40;;;13.00;99.90;;;;;;5134869;28;20487;-59
2023/10/30 00:37:17;;;;;;;1.00;0.40;;;13.00;99.90;;;;;;5134425;27;20467;-59
2023/10/30 00:39:44;;;;;;;0.60;0.40;;;13.00;99.90;;;;;;5134546;27;20909;-57
2023/10/30 00:42:12;;;;;;;1.13;0.40;;;13.00;99.90;;;;;;5138048;27;20427;-58
2023/10/30 00:44:39;;;;;;;0.60;0.40;;;13.00;99.90;;;;;;5137477;27;20483;-57
2023/10/30 00:47:06;;;;;;;0.77;0.40;;;13.00;99.90;;;;;;5137358;27;20471;-57
2023/10/30 00:49:34;;;;;;;0.68;0.40;;;13.00;99.90;;;;;;5137340;27;20479;-58
2023/10/30 00:52:02;;;;;;;1.40;0.40;;;13.10;99.90;;;;;;5137723;27;20458;-57
2023/10/30 00:54:29;;;;;;;0.70;0.40;;;13.20;99.90;;;;;;5137746;27;20484;-58
2023/10/30 00:56:56;;;;;;;1.90;0.40;;;13.20;99.90;;;;;;5137855;27;20445;-58
2023/10/30 00:59:23;;;;;;;0.57;0.30;;;13.20;99.90;;;;;;5138005;27;20471;-58
2023/10/30 01:01:50;;;;;;;0.70;0.40;;;13.10;99.90;;;;;;5136823;27;20914;-59
2023/10/30 01:04:17;;;;;;;0.50;0.30;;;13.00;99.90;;;;;;5136970;27;20430;-58
2023/10/30 01:06:46;;;;;;;0.70;0.40;;;13.00;99.90;;;;;;5136831;27;20419;-58
2023/10/30 01:09:14;;;;;;;0.70;0.32;;;13.10;99.90;;;;;;5137678;27;20433;-58
2023/10/30 01:11:41;;;;;;;0.70;0.30;;;13.20;99.90;;;;;;5138073;27;20414;-58
2023/10/30 01:14:08;;;;;;;1.00;0.30;;;13.30;99.90;;;;;;5137367;27;20760;-58
2023/10/30 01:16:35;;;;;;;0.60;0.40;;;13.30;99.90;;;;;;5136150;27;20520;-58
2023/10/30 01:19:02;;;;;;;0.60;0.40;;;13.30;99.90;;;;;;5136215;27;20418;-59
2023/10/30 01:21:29;;;;;;;0.70;0.40;;;13.30;99.90;;;;;;5137292;27;20463;-59
2023/10/30 01:23:56;;;;;;;0.57;0.40;;;13.20;99.90;;;;;;5137127;27;20438;-58
2023/10/30 01:26:24;;;;;;;0.63;0.40;;;13.20;99.90;;;;;;5136843;27;20430;-58
2023/10/30 01:28:51;;;;;;;1.40;0.43;;;13.20;99.90;;;;;;5137123;27;20411;-57
2023/10/30 01:31:18;;;;;;;0.70;0.40;;;13.20;99.90;;;;;;5136953;27;20407;-59
2023/10/30 01:33:45;;;;;;;0.60;0.40;;;13.20;99.90;;;;;;5136471;27;20468;-58
2023/10/30 01:36:12;;;;;;;0.70;0.40;;;13.20;99.90;;;;;;5136294;27;20483;-58
2023/10/30 01:38:39;;;;;;;0.70;0.40;;;13.20;99.90;;;;;;5136353;27;20703;-58
2023/10/30 01:41:06;;;;;;;0.70;0.40;;;13.10;99.90;;;;;;5135190;27;20411;-58
2023/10/30 01:43:35;;;;;;;0.70;0.30;;;13.20;99.90;;;;;;5136890;27;20427;-59
2023/10/30 01:46:02;;;;;;;0.63;0.30;;;13.20;99.90;;;;;;5137007;27;20734;-58
2023/10/30 01:48:33;;;;;;;0.50;0.30;;;13.20;99.90;;;;;;5136554;27;20483;-59
2023/10/30 01:51:01;;;;;;;0.60;0.30;;;13.30;99.90;;;;;;5136516;27;20426;-58
2023/10/30 01:53:30;;;;;;;1.42;0.30;;;13.30;99.90;;;;;;5136625;27;20768;-58
2023/10/30 01:55:58;;;;;;;0.60;0.30;;;13.30;99.90;;;;;;5137201;27;20836;-58
2023/10/30 01:58:25;;;;;;;0.80;0.30;;;13.40;99.90;;;;;;5136564;27;20415;-58
2023/10/30 02:00:54;;;;;;;0.50;0.20;;;13.40;99.90;;;;;;5136555;27;20475;-58
2023/10/30 02:03:21;;;;;;;0.70;0.30;;;13.40;99.90;;;;;;5136556;27;20482;-58
2023/10/30 02:05:48;;;;;;;0.50;0.22;;;13.40;99.90;;;;;;5136249;27;20422;-58
2023/10/30 02:08:17;;;;;;;0.60;0.30;;;13.40;99.90;;;;;;5132859;27;20483;-59
2023/10/30 02:10:44;;;;;;;1.20;0.30;;;13.40;99.90;;;;;;5131678;27;20440;-59
2023/10/30 02:13:12;;;;;;;0.55;0.30;;;13.40;99.90;;;;;;5133633;27;20428;-58
2023/10/30 02:15:39;;;;;;;0.80;0.30;;;13.40;99.90;;;;;;5133260;27;20418;-59
2023/10/30 02:18:07;;;;;;;0.70;0.40;;;13.40;99.90;;;;;;5133444;27;20864;-58
2023/10/30 02:20:34;;;;;;;1.60;0.40;;;13.40;99.90;;;;;;5134664;27;20809;-58
2023/10/30 02:23:01;;;;;;;0.60;0.30;;;13.30;99.90;;;;;;5134370;27;20425;-59
2023/10/30 02:25:32;;;;;;;0.70;0.40;;;13.30;99.90;;;;;;5134995;27;20483;-58
2023/10/30 02:28:00;;;;;;;0.50;0.30;;;13.30;99.90;;;;;;5136586;27;20508;-58
2023/10/30 02:30:27;;;;;;;0.60;0.40;;;13.20;99.90;;;;;;5134987;27;20537;-58
2023/10/30 02:32:54;;;;;;;0.60;0.40;;;13.20;99.90;;;;;;5135793;27;20479;-58
2023/10/30 02:35:21;;;;;;;1.80;0.40;;;13.20;99.90;;;;;;5135735;27;20414;-59
2023/10/30 02:37:48;;;;;;;0.60;0.40;;;13.20;99.90;;;;;;5135001;27;20542;-58
2023/10/30 02:40:14;;;;;;;0.60;0.40;;;13.20;99.90;;;;;;5135503;27;20418;-58
2023/10/30 02:42:43;;;;;;;0.70;0.40;;;13.20;99.90;;;;;;5136896;27;20762;-59
2023/10/30 02:45:10;;;;;;;0.60;0.40;;;13.20;99.90;;;;;;5135423;27;20434;-58
2023/10/30 02:47:38;;;;;;;0.90;0.50;;;13.10;99.90;;;;;;5135353;27;20833;-58
2023/10/30 02:50:06;;;;;;;1.17;0.40;;;13.00;99.90;;;;;;5135794;27;20775;-58
2023/10/30 02:52:35;;;;;;;1.80;0.40;;;13.00;99.90;;;;;;5135458;27;20472;-59
2023/10/30 02:55:02;;;;;;;0.70;0.40;;;13.10;99.90;;;;;;5135552;27;20471;-58
2023/10/30 02:57:29;;;;;;;0.70;0.40;;;13.10;99.90;;;;;;5135574;27;20462;-58
2023/10/30 02:59:58;;;;;;;0.90;0.50;;;13.00;99.90;;;;;;5135815;27;20771;-58
2023/10/30 03:02:25;;;;;;;1.00;0.50;;;13.00;99.90;;;;;;5134507;27;20422;-59
2023/10/30 03:04:52;;;;;;;0.70;0.40;;;13.10;99.90;;;;;;5134789;27;20422;-58
2023/10/30 03:07:18;;;;;;;0.90;0.50;;;13.00;99.90;;;;;;5135387;27;20475;-58
2023/10/30 03:09:45;;;;;;;1.50;0.50;;;13.00;99.90;;;;;;5135070;27;20418;-58
2023/10/30 03:12:12;;;;;;;0.70;0.47;;;13.10;99.90;;;;;;5135116;27;20430;-59
2023/10/30 03:14:39;;;;;;;0.70;0.50;;;13.10;99.90;;;;;;5135175;27;20421;-58
2023/10/30 03:17:08;;;;;;;0.90;0.50;;;13.10;99.90;;;;;;5135071;27;20474;-58
2023/10/30 03:19:35;;;;;;;0.60;0.40;;;13.00;99.90;;;;;;5133891;27;20463;-58
2023/10/30 03:22:02;;;;;;;0.80;0.50;;;13.10;99.90;;;;;;5133876;27;20457;-58
2023/10/30 03:24:29;;;;;;;0.73;0.40;;;13.10;99.90;;;;;;5132292;27;20475;-59
2023/10/30 03:26:57;;;;;;;0.70;0.40;;;13.10;99.90;;;;;;5132632;27;20429;-58
2023/10/30 03:29:24;;;;;;;1.10;0.50;;;13.10;99.90;;;;;;5132695;27;20424;-58
2023/10/30 03:31:52;;;;;;;1.20;0.43;;;13.10;99.90;;;;;;5133220;27;20417;-58
2023/10/30 03:34:21;;;;;;;1.05;0.40;;;13.10;99.90;;;;;;5133775;27;20692;-59
2023/10/30 03:36:48;;;;;;;0.80;0.50;;;13.10;99.90;;;;;;5133704;27;20419;-58
2023/10/30 03:39:15;;;;;;;0.80;0.40;;;13.00;99.90;;;;;;5134885;27;20512;-58
2023/10/30 03:41:44;;;;;;;1.50;0.50;;;13.00;99.90;;;;;;5134866;27;20422;-58
2023/10/30 03:44:11;;;;;;;0.70;0.40;;;13.00;99.90;;;;;;5134566;27;20434;-58
2023/10/30 03:46:38;;;;;;;1.58;0.40;;;13.10;99.90;;;;;;5135377;27;20761;-58
2023/10/30 03:49:05;;;;;;;1.10;0.40;;;13.10;99.90;;;;;;5135376;27;20479;-58
2023/10/30 03:51:34;;;;;;;0.70;0.40;;;13.00;99.90;;;;;;5134800;27;20471;-58
2023/10/30 03:54:01;;;;;;;1.17;0.50;;;13.00;99.90;;;;;;5135049;27;20513;-58
2023/10/30 03:56:28;;;;;;;0.80;0.40;;;12.90;99.90;;;;;;5134857;27;20933;-58
2023/10/30 03:58:55;;;;;;;0.70;0.40;;;13.00;99.90;;;;;;5134340;27;20427;-58
2023/10/30 04:01:22;;;;;;;0.70;0.40;;;12.90;99.90;;;;;;5134065;27;20422;-58
2023/10/30 04:03:49;;;;;;;0.70;0.50;;;12.80;99.90;;;;;;5134353;27;20418;-58
2023/10/30 04:06:16;;;;;;;1.30;0.40;;;12.70;99.90;;;;;;5134812;27;20422;-58
2023/10/30 04:08:44;;;;;;;0.70;0.40;;;12.70;99.90;;;;;;5135180;27;20452;-58
2023/10/30 04:11:14;;;;;;;1.40;0.50;;;12.60;99.90;;;;;;5132346;27;20423;-58
2023/10/30 04:13:41;;;;;;;0.50;0.30;;;12.50;99.90;;;;;;5134947;27;20444;-58
2023/10/30 04:16:11;;;;;;;1.38;0.50;;;12.50;99.90;;;;;;5138807;27;21004;-60
2023/10/30 04:18:38;;;;;;;1.10;0.40;;;12.50;99.90;;;;;;5138976;27;20517;-58
2023/10/30 04:21:06;;;;;;;1.10;0.40;;;12.50;99.90;;;;;;5138726;27;20718;-58
2023/10/30 04:23:33;;;;;;;1.10;0.40;;;12.40;99.90;;;;;;5138459;27;20475;-58
2023/10/30 04:26:01;;;;;;;0.70;0.40;;;12.40;99.90;;;;;;5138109;27;20423;-59
2023/10/30 04:28:28;;;;;;;0.70;0.40;;;12.40;99.90;;;;;;5137391;27;20897;-58
2023/10/30 04:30:55;;;;;;;0.60;0.40;;;12.40;99.90;;;;;;5138350;27;20418;-59
2023/10/30 04:33:22;;;;;;;0.70;0.40;;;12.40;99.90;;;;;;5137285;27;20429;-58
2023/10/30 04:35:49;;;;;;;0.52;0.30;;;12.40;99.90;;;;;;5138220;27;20414;-58
2023/10/30 04:38:16;;;;;;;0.60;0.30;;;12.40;99.90;;;;;;5138478;27;20446;-58
2023/10/30 04:40:42;;;;;;;0.60;0.30;;;12.40;99.90;;;;;;5137898;27;20833;-58
2023/10/30 04:43:11;;;;;;;1.10;0.30;;;12.40;99.90;;;;;;5136570;27;20410;-58
2023/10/30 04:45:38;;;;;;;0.80;0.30;;;12.40;99.90;;;;;;5136609;27;20430;-58
2023/10/30 04:48:05;;;;;;;0.60;0.30;;;12.30;99.90;;;;;;5136570;27;20422;-58
2023/10/30 04:50:32;;;;;;;0.55;0.30;;;12.30;99.90;;;;;;5136283;27;20475;-58
2023/10/30 04:52:59;;;;;;;0.50;0.20;;;12.10;99.90;;;;;;5135704;27;20418;-58
2023/10/30 04:55:26;;;;;;;0.60;0.30;;;12.10;99.90;;;;;;5135851;27;20460;-58
2023/10/30 04:57:53;;;;;;;0.50;0.30;;;12.10;99.90;;;;;;5137090;27;20418;-58
2023/10/30 05:00:22;;;;;;;0.70;0.30;;;12.10;99.90;;;;;;5135580;27;20427;-58
2023/10/30 05:02:50;;;;;;;0.50;0.20;;;12.20;99.90;;;;;;5136614;27;20508;-58
2023/10/30 05:05:17;;;;;;;0.60;0.30;;;12.20;99.90;;;;;;5136817;27;20437;-58
2023/10/30 05:07:44;;;;;;;0.90;0.30;;;12.20;99.90;;;;;;5137649;27;20418;-59
2023/10/30 05:10:12;;;;;;;0.60;0.30;;;12.20;99.90;;;;;;5137573;27;20700;-58
2023/10/30 05:12:39;;;;;;;0.70;0.30;;;12.20;99.90;;;;;;5136933;27;20406;-58
2023/10/30 05:15:08;;;;;;;0.60;0.30;;;12.20;99.90;;;;;;5136030;27;20521;-58
2023/10/30 05:17:37;;;;;;;0.60;0.30;;;12.30;99.90;;;;;;5137508;27;20924;-58
2023/10/30 05:20:05;;;;;;;0.50;0.30;;;12.30;99.90;;;;;;5135848;27;20403;-58
2023/10/30 05:22:33;;;;;;;1.70;0.30;;;12.40;99.90;;;;;;5135373;27;20436;-58
2023/10/30 05:25:02;;;;;;;0.50;0.20;;;12.40;99.90;;;;;;5136922;27;20609;-58
2023/10/30 05:27:29;;;;;;;0.60;0.30;;;12.40;99.90;;;;;;5136202;27;20534;-59
2023/10/30 05:29:57;;;;;;;0.70;0.30;;;12.30;99.90;;;;;;5136915;27;20473;-59
2023/10/30 05:32:24;;;;;;;0.70;0.40;;;12.30;99.90;;;;;;5137317;27;20414;-58
2023/10/30 05:34:53;;;;;;;0.60;0.40;;;12.30;99.90;;;;;;5136048;27;20463;-57
2023/10/30 05:37:21;;;;;;;2.50;0.40;;;12.30;99.90;;;;;;5136785;27;20417;-58
2023/10/30 05:39:49;;;;;;;0.70;0.40;;;12.30;99.90;;;;;;5135922;27;20418;-58
2023/10/30 05:42:16;;;;;;;1.00;0.50;;;12.30;99.90;;;;;;5136351;27;20853;-58
2023/10/30 05:44:43;;;;;;;0.60;0.50;;;12.20;99.90;;;;;;5135475;27;20514;-58
2023/10/30 05:47:11;;;;;;;0.77;0.50;;;12.20;99.90;;;;;;5134384;27;20768;-58
2023/10/30 05:49:38;;;;;;;0.90;0.60;;;12.20;99.90;;;;;;5135254;27;20415;-58
2023/10/30 05:52:08;;;;;;;1.30;0.70;;;12.30;99.90;;;;;;5135905;27;20422;-58
2023/10/30 05:54:35;;;;;;;1.00;0.70;;;12.20;99.90;;;;;;5136185;27;20501;-59
2023/10/30 05:57:02;;;;;;;1.20;0.70;;;12.20;99.90;;;;;;5134313;27;20518;-57
2023/10/30 05:59:29;;;;;;;0.90;0.60;;;12.20;99.90;;;;;;5134133;27;20418;-56
2023/10/30 06:01:56;;;;;;;0.93;0.67;;;12.10;99.90;;;;;;5134881;27;20467;-56
2023/10/30 06:04:24;;;;;;;1.10;0.70;;;12.10;99.90;;;;;;5135033;27;20440;-58
2023/10/30 06:06:51;;;;;;;1.00;0.60;;;12.10;99.90;;;;;;5134548;27;20418;-59
2023/10/30 06:09:19;;;;;;;1.20;0.63;;;12.10;99.90;;;;;;5133847;27;20734;-59
2023/10/30 06:11:48;;;;;;;1.05;0.70;;;12.10;99.90;;;;;;5133299;27;20422;-59
2023/10/30 06:14:15;;;;;;;1.00;0.70;;;12.10;99.90;;;;;;5133912;27;20442;-59
2023/10/30 06:16:43;;;;;;;1.70;0.70;;;12.00;99.90;;;;;;5132944;27;20411;-59
2023/10/30 06:19:10;;;;;;;0.90;0.65;;;12.00;99.90;;;;;;5132835;27;20448;-58
2023/10/30 06:21:38;;;;;;;1.20;0.70;;;12.00;99.90;;;;;;5134275;27;20419;-59
2023/10/30 06:24:06;;;;;;;1.70;0.80;;;11.90;99.90;;;;;;5135965;27;20430;-59
2023/10/30 06:26:34;;;;;;;1.50;0.70;;;11.90;99.90;;;;;;5134804;27;20427;-59
2023/10/30 06:29:01;;;;;;;1.40;0.80;;;11.90;99.90;;;;;;5134953;27;20772;-58
2023/10/30 06:31:28;;;;;;;1.30;0.70;;;11.90;99.90;;;;;;5134456;27;20422;-59
2023/10/30 06:33:55;;;;;;;1.20;0.63;;;11.90;99.90;;;;;;5135347;27;20760;-59
2023/10/30 06:36:22;;;;;;;1.00;0.70;;;11.90;99.90;;;;;;5134671;27;20502;-58
2023/10/30 06:38:49;;;;;;;1.00;0.70;;;11.90;99.90;;;;;;5133091;27;20422;-58
2023/10/30 06:41:16;;;;;;;1.20;0.65;;;11.90;99.90;;;;;;5133244;27;20422;-59
2023/10/30 06:43:45;;;;;;;1.30;0.80;;;11.90;99.90;;;;;;5134420;27;20456;-59
2023/10/30 06:46:12;;;;;;;1.80;0.80;;;11.90;99.90;;;;;;5134242;27;20487;-59
2023/10/30 06:48:39;;;;;;;1.20;0.70;;;12.00;99.90;;;;;;5133985;27;20421;-59
2023/10/30 06:51:06;;;;;;;1.27;0.77;;;11.90;99.90;;;;;;5133708;27;20471;-59
2023/10/30 06:53:32;;;;;;;1.25;0.70;;;12.00;99.90;;;;;;5134081;27;20436;-59
2023/10/30 06:55:59;;;;;;;2.40;0.70;;;12.00;99.90;;;;;;5134872;27;20748;-59
2023/10/30 06:58:26;;;;;;;1.60;0.73;;;12.00;99.90;;;;;;5134246;27;20415;-59
2023/10/30 07:01:02;;;;;;;1.75;0.80;;;12.00;99.90;;;;;;5134664;27;20426;-59
2023/10/30 07:03:29;;;;;;;1.70;0.80;;;12.00;99.90;;;;;;5134579;27;20503;-59
2023/10/30 07:05:57;;;;;;;0.90;0.60;;;12.10;99.90;;;;;;5133572;27;20434;-59
2023/10/30 07:08:24;;;;;;;1.10;0.75;;;12.10;99.90;;;;;;5134383;27;20657;-58
2023/10/30 07:10:51;;;;;;;1.10;0.80;;;12.20;99.90;;;;;;5133379;27;20476;-58
2023/10/30 07:13:18;;;;;;;1.80;0.70;;;12.20;99.90;;;;;;5126835;27;20622;-58
2023/10/30 07:15:45;;;;;;;1.30;0.80;;;12.30;99.90;;;;;;5125087;27;20430;-57
2023/10/30 07:18:14;;;;;;;1.10;0.70;;;12.30;99.90;;;;;;5131397;27;20430;-58
2023/10/30 07:20:40;;;;;;;1.30;0.75;;;12.20;99.90;;;;;;5131205;27;20430;-58
2023/10/30 07:23:07;;;;;;;0.90;0.70;;;12.30;99.90;;;;;;5132072;27;20426;-58
2023/10/30 07:25:35;;;;;;;1.83;0.90;;;12.30;99.90;;;;;;5131656;27;20426;-56
2023/10/30 07:28:02;;;;;;;1.50;0.80;;;12.30;99.90;;;;;;5132007;27;20429;-58
2023/10/30 07:30:29;;;;;;;2.10;0.80;;;12.30;99.90;;;;;;5130916;27;20486;-58
2023/10/30 07:32:56;;;;;;;1.30;0.80;;;12.30;99.90;;;;;;5129496;27;20434;-58
2023/10/30 07:35:24;;;;;;;1.60;0.82;;;12.30;99.90;;;;;;5129714;27;20470;-58
2023/10/30 07:37:51;;;;;;;1.00;0.70;;;12.30;99.90;;;;;;5127594;27;20442;-57
2023/10/30 07:40:19;;;;;;;1.40;0.90;;;12.50;99.90;;;;;;5129866;27;20932;-58
2023/10/30 07:42:46;;;;;;;1.88;0.90;;;12.50;99.90;;;;;;5127564;27;20453;-59
2023/10/30 07:45:13;;;;;;;1.40;0.80;;;12.60;99.90;;;;;;5130299;27;20737;-57
2023/10/30 07:47:40;;;;;;;2.15;0.80;;;12.60;99.90;;;;;;5132043;27;20431;-57
2023/10/30 07:50:08;;;;;;;1.48;0.90;;;12.60;99.90;;;;;;5134586;27;20910;-57
2023/10/30 07:52:36;;;;;;;1.70;0.80;;;12.60;99.90;;;;;;5136857;27;20426;-57
2023/10/30 07:55:05;;;;;;;1.13;0.80;;;12.60;99.90;;;;;;5137146;27;20566;-57
2023/10/30 07:57:32;;;;;;;1.20;0.90;;;12.60;99.90;;;;;;5137916;27;20829;-57
2023/10/30 07:59:59;;;;;;;2.22;0.90;;;12.60;99.90;;;;;;5138212;27;20695;-57
2023/10/30 08:02:26;;;;;;;1.70;0.90;;;12.60;99.90;;;;;;5137644;27;20414;-57
2023/10/30 08:04:55;;;;;;;1.75;0.90;;;12.60;99.90;;;;;;5135468;27;21041;-57
2023/10/30 08:07:22;;;;;;;1.77;0.80;;;12.70;99.90;;;;;;5135144;27;20437;-57
2023/10/30 08:09:50;;;;;;;1.60;0.85;;;12.70;99.90;;;;;;5132986;27;20434;-57
2023/10/30 08:12:17;;;;;;;1.38;0.70;;;12.80;99.90;;;;;;5134788;27;20436;-58
2023/10/30 08:14:44;;;;;;;1.23;0.80;;;12.80;99.90;;;;;;5131251;27;20496;-58
2023/10/30 08:17:12;;;;;;;2.10;0.80;;;12.90;99.90;;;;;;5135253;27;20418;-58
2023/10/30 08:19:38;;;;;;;1.10;0.70;;;13.00;99.90;;;;;;5122267;27;20443;-58
2023/10/30 08:22:06;;;;;;;1.30;0.80;;;13.10;99.90;;;;;;5114315;28;20488;-58
2023/10/30 08:24:33;;;;;;;1.27;0.75;;;13.10;99.90;;;;;;5115300;28;20473;-58
2023/10/30 08:27:01;;;;;;;2.10;0.80;;;13.20;99.90;;;;;;5129291;27;20452;-58
2023/10/30 08:29:28;;;;;;;1.88;0.90;;;13.30;99.90;;;;;;5128898;27;20871;-59
2023/10/30 08:31:55;;;;;;;1.50;0.80;;;13.30;99.90;;;;;;5132044;27;20491;-58
2023/10/30 08:34:22;;;;;;;1.60;0.90;;;13.40;99.90;;;;;;5133054;27;20430;-58
2023/10/30 08:36:49;;;;;;;1.00;0.63;;;13.40;99.90;;;;;;5132412;27;20742;-58
2023/10/30 08:39:16;;;;;;;1.10;0.70;;;13.50;99.90;;;;;;5114343;28;20416;-58
2023/10/30 08:41:43;;;;;;;1.30;0.70;;;13.60;99.90;;;;;;5118261;27;20436;-59
2023/10/30 08:44:11;;;;;;;1.20;0.80;;;13.70;99.90;;;;;;5116397;28;20432;-58
2023/10/30 08:46:38;;;;;;;1.50;0.70;;;13.70;99.90;;;;;;5115819;28;20560;-59
2023/10/30 08:49:05;;;;;;;1.25;0.80;;;13.80;99.90;;;;;;5115112;28;20415;-58
2023/10/30 08:51:33;;;;;;;1.20;0.80;;;13.90;99.90;;;;;;5114613;28;20897;-58
2023/10/30 08:54:00;;;;;;;1.23;0.70;;;14.00;99.90;;;;;;5102077;28;20465;-57
2023/10/30 08:56:27;;;;;;;1.40;0.73;;;14.00;99.90;;;;;;5131463;27;20403;-58
2023/10/30 08:58:54;;;;;;;1.70;0.80;;;13.90;99.90;;;;;;5133129;27;20899;-58
2023/10/30 09:01:22;;;;;;;1.20;0.60;;;13.90;99.90;;;;;;5131225;27;20754;-58
2023/10/30 09:03:50;;;;;;;1.88;0.80;;;14.00;99.90;;;;;;5133610;27;20817;-58
2023/10/30 09:06:17;;;;;;;2.90;0.80;;;14.00;99.90;;;;;;5133860;27;20433;-58
2023/10/30 09:08:43;;;;;;;0.98;0.70;;;14.00;99.90;;;;;;5134564;27;21038;-58
2023/10/30 09:11:10;;;;;;;2.40;0.80;;;13.90;99.90;;;;;;5131254;27;20767;-58
2023/10/30 09:13:37;;;;;;;2.10;0.70;;;13.90;99.90;;;;;;5132757;27;20418;-58
2023/10/30 09:16:05;;;;;;;1.20;0.80;;;14.00;99.90;;;;;;5132723;27;20410;-58
2023/10/30 09:18:34;;;;;;;1.50;0.70;;;14.10;99.90;;;;;;5134560;27;20414;-58
2023/10/30 09:21:02;;;;;;;1.42;0.70;;;14.10;99.90;;;;;;5134344;27;20402;-58
2023/10/30 09:23:29;;;;;;;1.50;0.70;;;14.10;99.90;;;;;;5135165;27;20414;-59
2023/10/30 09:25:56;;;;;;;1.30;0.70;;;14.20;99.90;;;;;;5133929;27;20430;-58
2023/10/30 09:28:23;;;;;;;1.60;0.70;;;14.30;99.90;;;;;;5135618;27;20426;-58
2023/10/30 09:30:50;;;;;;;1.00;0.70;;;14.30;99.90;;;;;;5134689;27;20426;-58
2023/10/30 09:33:17;;;;;;;1.50;0.70;;;14.40;99.90;;;;;;5131409;27;20483;-58
2023/10/30 09:35:45;;;;;;;1.70;0.60;;;14.50;99.90;;;;;;5132124;27;20422;-58
2023/10/30 09:38:12;;;;;;;1.50;0.80;;;14.50;99.90;;;;;;5134222;27;20426;-58
2023/10/30 09:40:39;;;;;;;1.13;0.68;;;14.50;99.90;;;;;;5132701;27;20965;-58
2023/10/30 09:43:09;;;;;;;1.10;0.70;;;14.60;99.90;;;;;;5133084;27;20995;-59
2023/10/30 09:45:38;;;;;;;0.90;0.60;;;14.60;99.90;;;;;;5132841;27;20429;-57
2023/10/30 09:48:07;;;;;;;0.90;0.60;;;14.60;99.90;;;;;;5115683;27;20421;-57
2023/10/30 09:50:35;;;;;;;2.25;0.65;;;14.80;99.90;;;;;;5123551;27;20522;-58
2023/10/30 09:53:04;;;;;;;1.90;0.70;;;14.90;99.90;;;;;;5127445;27;20433;-58
2023/10/30 09:55:31;;;;;;;1.58;0.60;;;14.90;99.90;;;;;;5131606;27;20433;-57
2023/10/30 09:57:59;;;;;;;0.93;0.60;;;15.10;99.90;;;;;;5129027;27;20469;-58
2023/10/30 10:00:27;;;;;;;0.80;0.60;;;15.30;99.90;;;;;;5126785;27;20510;-56
2023/10/30 10:02:54;;;;;;;0.90;0.60;;;15.50;95.90;;;;;;5132865;27;20509;-57
2023/10/30 10:05:21;;;;;;;1.20;0.70;;;15.60;73.30;;;;;;5132193;27;20434;-59
2023/10/30 10:07:48;;;;;;;1.48;0.55;;;15.60;57.30;;;;;;5132119;27;20430;-61
2023/10/30 10:10:19;;;;;;;0.80;0.60;;;15.50;82.70;;;;;;5115603;27;20742;-61
2023/10/30 10:12:50;;;;;;;1.20;0.52;;;15.60;80.30;;;;;;5123315;27;20498;-61
2023/10/30 10:15:20;;;;;;;1.10;0.70;;;15.60;71.00;;;;;;5131180;27;20525;-62
2023/10/30 10:17:48;;;;;;;0.93;0.60;;;15.50;50.10;;;;;;5127782;27;20418;-61
2023/10/30 10:20:16;;;;;;;1.00;0.60;;;15.60;78.70;;;;;;5129664;27;20437;-61
2023/10/30 10:22:43;;;;;;;1.27;0.70;;;15.60;68.90;;;;;;5127362;27;20433;-60
2023/10/30 10:25:11;;;;;;;1.60;0.60;;;15.70;46.90;;;;;;5129447;27;20469;-61
2023/10/30 10:27:40;;;;;;;1.30;0.63;;;15.80;57.90;;;;;;5127851;27;20529;-60
2023/10/30 10:30:09;;;;;;;0.70;0.50;;;15.80;52.30;;;;;;5131691;27;20419;-61
2023/10/30 10:32:37;;;;;;;1.70;0.60;;;15.90;48.30;;;;;;5130292;27;20433;-61
2023/10/30 10:35:07;;;;;;;1.10;0.52;;;15.90;57.20;;;;;;5133552;27;20719;-60
2023/10/30 10:37:34;;;;;;;1.20;0.50;;;16.00;45.60;;;;;;5126639;27;20474;-60
2023/10/30 10:40:05;;;;;;;0.70;0.40;;;16.10;38.70;;;;;;5133711;27;20422;-59
2023/10/30 10:42:34;;;;;;;0.70;0.50;;;16.20;33.80;;;;;;5129878;27;20437;-60
2023/10/30 10:45:03;;;;;;;0.90;0.50;;;16.30;29.10;;;;;;5130286;27;20762;-60
2023/10/30 10:47:30;;;;;;;0.90;0.60;;;16.40;23.50;;;;;;5130451;27;20427;-60
2023/10/30 10:49:57;;;;;;;1.15;0.50;;;16.30;26.40;;;;;;5130809;27;20450;-61
2023/10/30 10:52:28;;;;;;;0.70;0.50;;;16.40;23.90;;;;;;5129624;27;20529;-61
2023/10/30 10:55:00;;;;;;;0.80;0.60;;;16.50;28.80;;;;;;5131658;27;20436;-61
2023/10/30 10:57:32;;;;;;;1.50;0.60;;;16.50;25.90;;;;;;5127143;27;20430;-60
2023/10/30 11:00:06;;;;;;;2.10;0.50;;;16.50;19.70;;;;;;5131995;27;20483;-60
2023/10/30 11:02:37;;;;;;;1.50;0.50;;;16.50;32.20;;;;;;5115245;27;20440;-61
2023/10/30 11:05:06;;;;;;;1.17;0.60;;;16.50;33.00;;;;;;5128728;27;20434;-60
2023/10/30 11:07:42;;;;;;;0.80;0.50;;;16.60;17.30;;;;;;5130802;27;20423;-61
2023/10/30 11:10:17;;;;;;;0.70;0.40;;;16.60;16.00;;;;;;5129811;27;20926;-61
2023/10/30 11:12:57;;;;;;;1.08;0.40;;;16.70;13.10;;;;;;5130316;27;20857;-61
2023/10/30 11:15:32;;;;;;;0.73;0.40;;;16.70;6.60;;;;;;5128829;27;20430;-61
2023/10/30 11:18:21;;;;;;;1.00;0.40;;;16.50;4.20;;;;;;5129561;27;20426;-61
2023/10/30 11:20:54;;;;;;;1.60;0.50;;;16.60;10.70;;;;;;5120300;27;21002;-61
2023/10/30 11:23:52;;;;;;;0.60;0.40;;;16.80;8.60;;;;;;5131114;27;20807;-61
2023/10/30 11:26:39;;;;;;;0.70;0.40;;;16.90;1.00;;;;;;5127371;27;20426;-61
2023/10/30 11:29:09;;;;;;;1.77;0.50;;;16.70;1.00;;;;;;5133293;27;20616;-61
2023/10/30 11:32:14;;;;;;;0.70;0.50;;;16.70;1.00;;;;;;5128188;27;20527;-61
2023/10/30 11:34:43;;;;;;;0.75;0.40;;;16.60;1.00;;;;;;5129487;27;20425;-62
2023/10/30 11:37:12;;;;;;;1.00;0.50;;;16.40;12.20;;;;;;5130264;27;20431;-59
2023/10/30 11:39:40;;;;;;;0.80;0.40;;;16.50;17.90;;;;;;5127659;27;20465;-61
2023/10/30 11:42:29;;;;;;;1.40;0.40;;;16.40;8.90;;;;;;5131279;27;20443;-61
2023/10/30 11:45:18;;;;;;;0.90;0.40;;;16.50;4.80;;;;;;5129672;27;20450;-62
2023/10/30 11:47:49;;;;;;;1.30;0.40;;;16.50;1.00;;;;;;5127363;27;20505;-61
2023/10/30 11:50:19;;;;;;;0.60;0.32;;;16.50;1.00;;;;;;5129963;27;20426;-61
2023/10/30 11:52:47;;;;;;;0.60;0.30;;;16.40;1.00;;;;;;5125611;27;20440;-61
2023/10/30 11:55:14;;;;;;;0.60;0.30;;;16.40;1.00;;;;;;5127999;27;20480;-65
2023/10/30 11:57:42;;;;;;;1.30;0.30;;;16.40;1.00;;;;;;5127395;27;20453;-61
2023/10/30 12:00:10;;;;;;;0.70;0.30;;;16.30;1.00;;;;;;5125380;27;20439;-61
2023/10/30 12:02:41;;;;;;;0.50;0.30;;;16.30;1.00;;;;;;5112410;27;20491;-61
2023/10/30 12:05:11;;;;;;;0.85;0.30;;;16.30;1.00;;;;;;5126742;27;20430;-62
2023/10/30 12:07:38;;;;;;;0.50;0.30;;;16.30;1.00;;;;;;5120391;27;20462;-59
2023/10/30 12:10:08;;;;;;;0.80;0.30;;;16.20;1.00;;;;;;5130331;27;20469;-60
2023/10/30 12:12:35;;;;;;;0.70;0.40;;;16.10;1.00;;;;;;5127153;27;20457;-59
2023/10/30 12:15:03;;;;;;;0.50;0.30;;;16.10;1.00;;;;;;5126606;27;20438;-60
2023/10/30 12:17:30;;;;;;;0.50;0.30;;;16.20;1.00;;;;;;5130631;27;20418;-61
2023/10/30 12:19:57;;;;;;;0.60;0.30;;;16.30;1.00;;;;;;5121239;28;20427;-59
2023/10/30 12:22:25;;;;;;;1.00;0.30;;;16.50;1.00;;;;;;5127915;27;20430;-61
2023/10/30 12:24:52;;;;;;;0.80;0.30;;;16.50;1.00;;;;;;5116665;27;20439;-61
2023/10/30 12:27:21;;;;;;;0.80;0.30;;;16.70;1.00;;;;;;5127457;27;20427;-62
2023/10/30 12:29:53;;;;;;;0.60;0.30;;;16.70;1.00;;;;;;5110319;28;20415;-62
2023/10/30 12:32:20;;;;;;;0.68;0.25;;;16.80;1.00;;;;;;5118740;28;20437;-61
2023/10/30 12:34:47;;;;;;;0.70;0.30;;;16.90;1.00;;;;;;5131411;27;20419;-60
2023/10/30 12:37:23;;;;;;;0.60;0.40;;;17.00;1.00;;;;;;5134478;27;20503;-62
2023/10/30 12:40:08;;;;;;;0.65;0.30;;;17.00;1.00;;;;;;5132222;27;20441;-62
2023/10/30 12:42:37;;;;;;;1.00;0.40;;;17.00;1.00;;;;;;5127791;27;20869;-60
2023/10/30 12:45:09;;;;;;;0.70;0.30;;;17.00;1.00;;;;;;5131089;27;20430;-61
2023/10/30 12:47:36;;;;;;;0.90;0.40;;;16.90;1.00;;;;;;5127213;27;20430;-61
2023/10/30 12:50:03;;;;;;;0.50;0.30;;;16.70;1.00;;;;;;5126973;27;20433;-61
2023/10/30 12:52:31;;;;;;;0.50;0.20;;;16.80;1.00;;;;;;5135215;27;20487;-59